Portada
METAR-TAF:

METAR-TAF

Aeroports :

Mysore, Índia

latitud: 12-13-48N, longitud: 76-39-21E, altitud: 715 m

Observació

L'informe es va fer fa 20 minuts, a les 10:30 UTC
Vent 8 kt del Est/Nord-Est
Temperatura 35°C
Humitat 39%
Pressió 1010 hPa
Visibilitat 10 km o més
Núvols disperses a una alçada de 1500 ft

METAR: VOMY 061030Z 06008KT 9999 SCT015 35/19 Q1010

Hora: 16:20 (10:50 UTC)

Pronòstic

L'informe es va fer fa 2 hores i 50 minuts, a les 08:00 UTC
Pronòstic vàlid del 06 a les 09 UTC al 06 a les 18 UTC
Vent 5 kt del Sud-Est
Visibilitat: 6000 m
Núvols disperses a una alçada de 1500 ft
Núvols disperses a una alçada de 2000 ft
Temporalment
l' 06 a les 10 UTC al 06 a les 15 UTC
Núvols disperses a una alçada de 1200 ft
Núvols disperses a una alçada de 2000 ft
Escasses núvols a una alçada de 2500 ft, Cumulonimbus.

TAF: VOMY 060800Z 0609/0618 14005KT 6000 SCT015 SCT020 TEMPO 0610/0615 SCT012 SCT020 FEW025CB

Observacions i pronòstics meteorològics de més de 4000 aeroports (METAR i TAF).

Les estacions disponibles són els punts grocs i vermells al mapa.

Posi el ratolí al punt desitjat per veure el nom de l'estació.

Feu clic per veure les observacions i els pronòstics meteorològics.

Per canviar el mapa: feu clic els botons verds amb una creu de color negre per apropar; al botó verd amb un guió per allunyar la imatge; o en les fletxes verdes per a mapes adjacents.


METAR-TAF: